Shubra el-Kheima, Egypt
Current Conditions -  °F | °C
As of 5:30 PM on Saturday 22 Nov 2014 (Local Time) from HECA Reporting Station
Broken Clouds Broken Clouds  
Wind Chill: 68°   Ceiling: 2500
Heat Index: 68°   Visibility: 6mi
Dew Point: 54°   Wind: 10mph
Humidity: 60%   Direction: 340°NNW
Pressure: 30.06"   Gusts: NA
Location:  30.1°N, 31.25°E
Report Text: HECA 221530Z 34009KT 9999 BKN025 20/12 Q1018 NOSIG
Loading
Personal Weather Stations






























Interactive Weather Map New forecast layout! Learn more

10-Day Weather Forecast

Advertisements
Track Severe Weather on mobile